Time;durP1;ratioP1;P1;durP2;ratioP2;P2;SDS_P1;SDS_P2;PMS_P1;PMS_P2;Temp;Humidity;BMP_temperature;BMP_pressure;BME280_temperature;BME280_humidity;BME280_pressure;Samples;Min_cycle;Max_cycle;Signal;HPM_P1;HPM_P2
2023/04/24 00:01:29;;;;;;;1.52;1.10;;;;;;;9.17;100.00;100030.03;5067006;28;20048;-76
2023/04/24 00:03:55;;;;;;;3.72;1.60;;;;;;;9.20;100.00;100037.84;5075002;28;20564;-76
2023/04/24 00:06:23;;;;;;;1.67;1.58;;;;;;;9.13;100.00;100034.25;5075512;28;20050;-76
2023/04/24 00:08:49;;;;;;;1.65;1.50;;;;;;;9.22;100.00;100036.56;5073699;28;20029;-75
2023/04/24 00:11:14;;;;;;;1.80;1.55;;;;;;;9.21;100.00;100042.25;5071424;28;20031;-76
2023/04/24 00:13:40;;;;;;;1.50;1.40;;;;;;;9.22;100.00;100028.38;5078456;28;20020;-75
2023/04/24 00:16:05;;;;;;;2.43;1.60;;;;;;;9.28;100.00;100034.91;5073680;28;20123;-74
2023/04/24 00:18:31;;;;;;;2.75;2.30;;;;;;;9.27;100.00;100028.59;5077026;28;20035;-75
2023/04/24 00:20:56;;;;;;;6.63;2.97;;;;;;;9.30;100.00;100033.63;5093631;28;20469;-75
2023/04/24 00:23:22;;;;;;;5.28;3.47;;;;;;;9.33;100.00;100030.50;5074436;28;20032;-76
2023/04/24 00:25:47;;;;;;;4.03;3.50;;;;;;;9.38;100.00;100029.84;5073531;28;20417;-75
2023/04/24 00:28:13;;;;;;;7.32;4.35;;;;;;;9.35;100.00;100031.09;5077426;28;20027;-76
2023/04/24 00:30:38;;;;;;;10.83;4.33;;;;;;;9.39;100.00;100035.13;5070429;28;20025;-76
2023/04/24 00:33:04;;;;;;;8.00;4.53;;;;;;;9.40;100.00;100025.03;5077616;28;20436;-76
2023/04/24 00:35:29;;;;;;;6.27;4.57;;;;;;;9.47;100.00;100039.53;5079205;28;20435;-75
2023/04/24 00:37:55;;;;;;;9.43;5.80;;;;;;;9.49;100.00;100031.97;5071431;28;20028;-76
2023/04/24 00:40:20;;;;;;;15.07;5.97;;;;;;;9.53;100.00;100033.22;5078350;28;20020;-76
2023/04/24 00:42:46;;;;;;;12.40;6.55;;;;;;;9.51;100.00;100033.44;5078953;28;20033;-76
2023/04/24 00:45:12;;;;;;;10.10;6.27;;;;;;;9.53;100.00;100030.50;5070329;28;20028;-76
2023/04/24 00:47:38;;;;;;;9.55;4.80;;;;;;;9.55;100.00;100034.69;5071166;28;20028;-76
2023/04/24 00:50:06;;;;;;;10.57;6.27;;;;;;;9.57;100.00;100026.28;5077604;28;20045;-75
2023/04/24 00:52:32;;;;;;;10.25;5.32;;;;;;;9.44;100.00;100024.41;5071634;28;20827;-76
2023/04/24 00:54:58;;;;;;;8.90;5.93;;;;;;;9.50;100.00;100015.34;5063175;28;20077;-76
2023/04/24 00:57:25;;;;;;;9.35;6.25;;;;;;;9.55;100.00;100033.88;5076143;28;20035;-77
2023/04/24 00:59:51;;;;;;;9.40;6.32;;;;;;;9.48;100.00;100017.47;5076441;28;20064;-77
2023/04/24 01:02:17;;;;;;;11.68;6.93;;;;;;;9.49;100.00;100023.75;5071970;28;20071;-75
2023/04/24 01:04:43;;;;;;;10.23;7.25;;;;;;;9.55;100.00;100020.22;5080762;28;20576;-75
2023/04/24 01:07:11;;;;;;;16.58;7.63;;;;;;;9.52;100.00;100032.41;5068015;28;20124;-75
2023/04/24 01:09:48;;;;;;;12.57;8.35;;;;;;;9.54;100.00;100029.44;5072837;28;20510;-75
2023/04/24 01:12:14;;;;;;;13.52;8.25;;;;;;;9.53;100.00;100030.50;5071886;28;20440;-75
2023/04/24 01:14:40;;;;;;;9.02;6.82;;;;;;;9.53;100.00;100022.28;5074209;28;20404;-75
2023/04/24 01:17:07;;;;;;;7.73;5.50;;;;;;;9.42;100.00;100029.25;5070201;28;20032;-75
2023/04/24 01:19:32;;;;;;;9.10;5.10;;;;;;;9.42;100.00;100023.78;5067888;28;20024;-75
2023/04/24 01:22:01;;;;;;;7.43;5.50;;;;;;;9.42;100.00;100028.38;5070649;28;20393;-76
2023/04/24 01:24:28;;;;;;;6.82;5.22;;;;;;;9.47;100.00;100028.59;5072805;28;20032;-75
2023/04/24 01:26:53;;;;;;;7.25;6.03;;;;;;;9.52;100.00;100026.94;5078157;28;20162;-76
2023/04/24 01:29:19;;;;;;;7.60;5.53;;;;;;;9.44;100.00;100026.31;5078431;28;20545;-75
2023/04/24 01:31:45;;;;;;;7.73;5.70;;;;;;;9.50;100.00;100030.94;5075179;28;20471;-76
2023/04/24 01:34:10;;;;;;;8.38;6.78;;;;;;;9.54;100.00;100032.16;5069808;28;20054;-76
2023/04/24 01:36:37;;;;;;;10.13;6.80;;;;;;;9.51;100.00;100032.59;5077609;28;20043;-76
2023/04/24 01:39:03;;;;;;;10.23;7.72;;;;;;;9.51;100.00;100027.97;5068641;28;20370;-76
2023/04/24 01:41:30;;;;;;;9.47;8.10;;;;;;;9.56;100.00;100022.72;5073275;28;20082;-75
2023/04/24 01:43:57;;;;;;;8.32;6.90;;;;;;;9.54;100.00;100029.44;5076781;28;20028;-75
2023/04/24 01:46:23;;;;;;;9.30;7.60;;;;;;;9.50;100.00;100028.19;5072831;28;20374;-75
2023/04/24 01:48:49;;;;;;;16.47;7.67;;;;;;;9.45;100.00;100037.00;5074711;28;20083;-75
2023/04/24 01:51:15;;;;;;;16.08;8.40;;;;;;;9.51;100.00;100027.13;5077256;28;20098;-76
2023/04/24 01:53:41;;;;;;;13.85;8.57;;;;;;;9.56;100.00;100024.63;5075218;28;20040;-76
2023/04/24 01:56:06;;;;;;;12.80;8.50;;;;;;;9.58;100.00;100020.63;5077642;28;20031;-75
2023/04/24 01:58:33;;;;;;;12.30;7.80;;;;;;;9.57;100.00;100039.97;5076976;28;20112;-75
2023/04/24 02:00:59;;;;;;;12.77;9.07;;;;;;;9.59;100.00;100016.84;5065346;28;20112;-76
2023/04/24 02:03:26;;;;;;;16.02;9.40;;;;;;;9.63;100.00;100026.31;5076167;28;20090;-76
2023/04/24 02:05:51;;;;;;;17.17;10.07;;;;;;;9.59;100.00;100021.44;5074119;28;20043;-76
2023/04/24 02:08:16;;;;;;;14.60;10.75;;;;;;;9.63;100.00;100014.50;5075384;28;20032;-76
2023/04/24 02:10:42;;;;;;;20.67;11.00;;;;;;;9.57;100.00;100020.81;5073961;28;20029;-75
2023/04/24 02:13:07;;;;;;;15.85;10.70;;;;;;;9.56;100.00;100010.94;5078434;28;20085;-76
2023/04/24 02:15:33;;;;;;;20.67;10.80;;;;;;;9.56;100.00;100021.88;5069294;28;20028;-76
2023/04/24 02:17:59;;;;;;;16.80;10.70;;;;;;;9.53;100.00;100009.47;5077654;28;20067;-76
2023/04/24 02:20:25;;;;;;;23.23;11.68;;;;;;;9.49;100.00;100010.94;5075024;28;20481;-75
2023/04/24 02:22:51;;;;;;;19.87;10.67;;;;;;;9.53;100.00;100001.28;5070112;28;20422;-75
2023/04/24 02:25:16;;;;;;;18.83;10.90;;;;;;;9.55;100.00;100009.28;5073064;28;20070;-76
2023/04/24 02:27:42;;;;;;;23.37;10.40;;;;;;;9.51;100.00;100003.34;5078755;28;20387;-76
2023/04/24 02:30:08;;;;;;;20.38;11.30;;;;;;;9.51;100.00;100000.63;5072677;28;20037;-75
2023/04/24 02:32:34;;;;;;;21.13;10.20;;;;;;;9.54;100.00;100010.28;5058220;28;20059;-75
2023/04/24 02:35:00;;;;;;;19.27;10.90;;;;;;;9.48;100.00;99997.47;5066109;28;20469;-75
2023/04/24 02:37:26;;;;;;;22.48;10.52;;;;;;;9.46;100.00;100005.06;5069113;28;20033;-75
2023/04/24 02:39:51;;;;;;;14.67;9.53;;;;;;;9.48;100.00;100002.94;5077479;28;20116;-75
2023/04/24 02:42:17;;;;;;;18.47;9.40;;;;;;;9.44;100.00;100009.91;5078456;28;20075;-75
2023/04/24 02:44:42;;;;;;;20.67;8.87;;;;;;;9.44;100.00;100005.25;5075306;28;20080;-75
2023/04/24 02:47:08;;;;;;;17.02;8.70;;;;;;;9.43;100.00;100005.47;5078953;28;20035;-75
2023/04/24 02:49:34;;;;;;;24.25;9.10;;;;;;;9.29;100.00;99996.44;5072239;28;20055;-74
2023/04/24 02:51:59;;;;;;;23.67;9.00;;;;;;;9.30;100.00;100008.22;5070786;28;20452;-73
2023/04/24 02:54:25;;;;;;;16.40;7.88;;;;;;;9.21;100.00;99999.38;5072813;28;20035;-73
2023/04/24 02:56:51;;;;;;;19.93;7.87;;;;;;;9.23;100.00;100007.38;5082271;28;20031;-73
2023/04/24 02:59:16;;;;;;;13.52;7.38;;;;;;;9.15;100.00;100002.94;5074087;28;20032;-75
2023/04/24 03:01:41;;;;;;;12.77;6.85;;;;;;;9.14;100.00;99998.50;5074918;28;20028;-75
2023/04/24 03:04:07;;;;;;;18.58;6.50;;;;;;;9.14;100.00;99992.22;5070888;28;20032;-74
2023/04/24 03:06:35;;;;;;;19.65;6.93;;;;;;;9.12;100.00;99995.16;5077987;28;20058;-77
2023/04/24 03:09:00;;;;;;;10.85;5.60;;;;;;;9.07;100.00;99999.59;5075600;28;20043;-74
2023/04/24 03:11:26;;;;;;;15.32;6.10;;;;;;;9.06;100.00;100006.06;5078961;28;20397;-74
2023/04/24 03:13:51;;;;;;;10.77;5.40;;;;;;;9.11;100.00;100009.03;5075563;28;20024;-74
2023/04/24 03:16:17;;;;;;;8.60;5.60;;;;;;;9.10;100.00;100008.19;5065120;28;20098;-75
2023/04/24 03:18:42;;;;;;;10.80;4.65;;;;;;;9.11;100.00;100003.56;5069682;28;20130;-75
2023/04/24 03:21:08;;;;;;;7.60;5.03;;;;;;;9.09;100.00;100008.41;5079979;28;20109;-75
2023/04/24 03:23:33;;;;;;;11.30;4.82;;;;;;;9.11;100.00;100006.28;5064470;28;20024;-75
2023/04/24 03:25:59;;;;;;;12.18;4.70;;;;;;;9.12;100.00;100017.00;5077607;28;20123;-75
2023/04/24 03:28:25;;;;;;;7.88;4.15;;;;;;;9.09;100.00;100011.13;5064457;28;20024;-75
2023/04/24 03:30:50;;;;;;;6.05;4.03;;;;;;;9.16;100.00;100025.63;5059712;28;20029;-75
2023/04/24 03:33:16;;;;;;;13.43;4.57;;;;;;;9.15;100.00;100019.34;5075310;28;20444;-76
2023/04/24 03:35:41;;;;;;;5.80;3.83;;;;;;;9.17;100.00;100021.84;5072429;28;20032;-75
2023/04/24 03:38:07;;;;;;;9.88;4.60;;;;;;;9.16;100.00;100033.81;5072091;28;20513;-75
2023/04/24 03:40:33;;;;;;;7.32;4.20;;;;;;;9.20;100.00;100024.19;5076357;28;20150;-75
2023/04/24 03:42:59;;;;;;;6.43;3.72;;;;;;;9.11;100.00;100026.28;5080965;28;20024;-76
2023/04/24 03:45:24;;;;;;;4.97;2.38;;;;;;;9.06;100.00;100027.94;5071902;28;20138;-76
2023/04/24 03:47:50;;;;;;;3.42;2.13;;;;;;;9.10;100.00;100031.94;5071157;28;20028;-76
2023/04/24 03:50:15;;;;;;;2.40;2.20;;;;;;;9.02;100.00;100021.22;5081147;28;20024;-76
2023/04/24 03:52:41;;;;;;;2.87;1.93;;;;;;;8.96;100.00;100024.78;5073079;28;20071;-76
2023/04/24 03:55:07;;;;;;;2.20;2.00;;;;;;;8.93;100.00;100014.25;5073925;28;20065;-76
2023/04/24 03:57:32;;;;;;;2.35;2.15;;;;;;;8.96;100.00;100020.13;5076257;28;20032;-76
2023/04/24 03:59:57;;;;;;;2.85;2.58;;;;;;;8.96;100.00;100000.19;5072035;28;20027;-76
2023/04/24 04:02:23;;;;;;;7.83;2.90;;;;;;;9.02;100.00;100000.19;5069213;28;20017;-75
2023/04/24 04:04:48;;;;;;;11.23;3.08;;;;;;;9.02;100.00;100007.56;5070899;28;20028;-75
2023/04/24 04:07:14;;;;;;;7.30;3.30;;;;;;;8.98;100.00;100006.28;5074346;28;20028;-76
2023/04/24 04:09:39;;;;;;;8.77;2.78;;;;;;;8.97;100.00;100004.63;5077306;28;20028;-76
2023/04/24 04:12:05;;;;;;;6.37;2.93;;;;;;;9.00;100.00;100007.75;5068264;28;20032;-76
2023/04/24 04:14:30;;;;;;;5.93;3.17;;;;;;;9.01;100.00;100011.31;5074207;28;20060;-75
2023/04/24 04:16:56;;;;;;;9.00;3.87;;;;;;;9.01;100.00;100012.16;5070832;28;20037;-75
2023/04/24 04:19:21;;;;;;;8.82;3.50;;;;;;;9.04;100.00;100016.38;5070804;28;20492;-76
2023/04/24 04:21:51;;;;;;;12.57;4.03;;;;;;;9.04;100.00;100019.09;5074592;28;20032;-76
2023/04/24 04:24:17;;;;;;;5.45;2.65;;;;;;;9.02;100.00;100034.88;5073648;28;20032;-75
2023/04/24 04:26:46;;;;;;;8.60;2.50;;;;;;;9.04;100.00;100039.09;5071800;28;20039;-75
2023/04/24 04:29:11;;;;;;;8.68;2.85;;;;;;;9.06;100.00;100053.38;5069776;28;20035;-75
2023/04/24 04:31:37;;;;;;;7.93;2.88;;;;;;;9.09;100.00;100054.84;5072137;28;20028;-76
2023/04/24 04:34:02;;;;;;;4.77;3.17;;;;;;;9.06;100.00;100058.81;5072172;28;20397;-76
2023/04/24 04:36:29;;;;;;;5.43;2.70;;;;;;;9.11;100.00;100069.97;5078659;28;20485;-75
2023/04/24 04:38:54;;;;;;;5.70;2.40;;;;;;;9.09;100.00;100071.22;5067069;28;20572;-77
2023/04/24 04:41:20;;;;;;;6.00;3.22;;;;;;;9.07;100.00;100067.88;5079626;28;20112;-76
2023/04/24 04:43:46;;;;;;;10.77;3.00;;;;;;;9.19;100.00;100074.41;5075280;28;20059;-76
2023/04/24 04:46:11;;;;;;;3.22;2.70;;;;;;;9.15;100.00;100081.31;5076553;28;20402;-74
2023/04/24 04:48:37;;;;;;;5.63;3.05;;;;;;;9.22;100.00;100084.91;5076153;28;20032;-74
2023/04/24 04:51:03;;;;;;;7.60;2.83;;;;;;;9.19;100.00;100079.88;5081821;28;20024;-74
2023/04/24 04:53:29;;;;;;;5.07;2.35;;;;;;;9.22;100.00;100082.19;5066654;28;20273;-74
2023/04/24 04:55:54;;;;;;;6.43;2.88;;;;;;;9.16;100.00;100088.47;5078077;28;20020;-76
2023/04/24 04:58:20;;;;;;;6.47;2.17;;;;;;;9.18;100.00;100103.59;5083433;28;20027;-76
2023/04/24 05:00:46;;;;;;;4.60;2.10;;;;;;;9.13;100.00;100108.03;5076063;28;20603;-75
2023/04/24 05:03:11;;;;;;;3.63;2.63;;;;;;;9.13;100.00;100106.13;5074348;28;20028;-75
2023/04/24 05:05:40;;;;;;;5.00;2.65;;;;;;;9.09;100.00;100126.72;5073672;28;20121;-75
2023/04/24 05:08:08;;;;;;;10.38;2.53;;;;;;;9.06;100.00;100135.31;5069708;28;20528;-74
2023/04/24 05:10:34;;;;;;;11.15;2.92;;;;;;;9.08;100.00;100132.38;5079253;28;20056;-75
2023/04/24 05:13:00;;;;;;;14.37;3.30;;;;;;;8.97;100.00;100136.53;5076463;28;20031;-75
2023/04/24 05:15:26;;;;;;;10.25;3.97;;;;;;;8.90;100.00;100143.88;5076176;28;20513;-75
2023/04/24 05:17:54;;;;;;;10.15;4.53;;;;;;;8.87;100.00;100162.56;5077754;28;20116;-75
2023/04/24 05:20:20;;;;;;;12.48;5.28;;;;;;;8.77;100.00;100164.81;5073472;28;20519;-75
2023/04/24 05:22:45;;;;;;;8.00;5.50;;;;;;;8.76;100.00;100174.06;5073787;28;20079;-75
2023/04/24 05:25:12;;;;;;;12.00;5.43;;;;;;;8.73;100.00;100180.75;5078513;28;20123;-76
2023/04/24 05:27:38;;;;;;;10.90;5.47;;;;;;;8.77;100.00;100186.66;5076016;28;20032;-76
2023/04/24 05:30:04;;;;;;;8.00;5.55;;;;;;;8.77;100.00;100186.66;5066991;28;20036;-75
2023/04/24 05:32:29;;;;;;;10.07;6.53;;;;;;;8.71;100.00;100203.84;5071388;28;20025;-75
2023/04/24 05:34:55;;;;;;;15.27;6.37;;;;;;;8.77;100.00;100217.53;5069051;28;20032;-75
2023/04/24 05:37:20;;;;;;;16.15;7.20;;;;;;;8.79;100.00;100220.06;5081257;28;20020;-76
2023/04/24 05:39:46;;;;;;;12.07;6.90;;;;;;;8.82;100.00;100230.59;5076549;28;20034;-75
2023/04/24 05:42:11;;;;;;;15.13;7.37;;;;;;;8.78;100.00;100256.59;5065803;28;20043;-76
2023/04/24 05:44:36;;;;;;;12.98;7.57;;;;;;;8.71;100.00;100247.53;5075174;28;20035;-75
2023/04/24 05:47:02;;;;;;;16.20;8.18;;;;;;;8.69;100.00;100249.59;5079028;28;20476;-76
2023/04/24 05:49:28;;;;;;;27.23;9.17;;;;;;;8.63;100.00;100272.25;5070996;28;20072;-76
2023/04/24 05:51:53;;;;;;;24.58;9.20;;;;;;;8.61;100.00;100274.34;5068220;28;20047;-76
2023/04/24 05:54:19;;;;;;;22.30;9.68;;;;;;;8.60;100.00;100275.38;5064316;28;20040;-76
2023/04/24 05:56:44;;;;;;;21.27;10.55;;;;;;;8.59;100.00;100298.28;5073204;28;20107;-76
2023/04/24 05:59:10;;;;;;;24.33;11.15;;;;;;;8.53;100.00;100299.88;5073797;28;20081;-76
2023/04/24 06:01:35;;;;;;;24.67;11.32;;;;;;;8.56;100.00;100306.84;5076827;28;20052;-76
2023/04/24 06:04:02;;;;;;;23.63;11.27;;;;;;;8.56;100.00;100309.56;5075105;28;20122;-76
2023/04/24 06:06:28;;;;;;;19.08;11.60;;;;;;;8.58;100.00;100323.84;5077699;28;20107;-75
2023/04/24 06:08:54;;;;;;;28.73;12.18;;;;;;;8.51;100.00;100328.41;5074050;28;21518;-76
2023/04/24 06:11:19;;;;;;;21.75;12.20;;;;;;;8.50;100.00;100332.19;5066565;28;20020;-76
2023/04/24 06:13:45;;;;;;;25.37;11.20;;;;;;;8.53;100.00;100338.09;5077422;28;20089;-76
2023/04/24 06:16:11;;;;;;;27.65;12.30;;;;;;;8.54;100.00;100347.16;5062024;28;20461;-77
2023/04/24 06:18:36;;;;;;;23.07;11.43;;;;;;;8.54;100.00;100349.88;5073864;28;20951;-75
2023/04/24 06:21:02;;;;;;;28.65;11.13;;;;;;;8.61;100.00;100356.22;5074626;28;20390;-77
2023/04/24 06:23:27;;;;;;;25.48;11.48;;;;;;;8.53;100.00;100370.00;5063886;28;20031;-77
2023/04/24 06:25:53;;;;;;;30.37;11.87;;;;;;;8.56;100.00;100366.88;5076452;28;20032;-76
2023/04/24 06:28:18;;;;;;;31.05;11.20;;;;;;;8.50;100.00;100371.22;5076066;28;20024;-76
2023/04/24 06:30:44;;;;;;;20.10;10.90;;;;;;;8.57;100.00;100382.22;5071071;28;20028;-76
2023/04/24 06:33:10;;;;;;;27.20;10.40;;;;;;;8.55;100.00;100384.31;5076532;28;20103;-76
2023/04/24 06:35:36;;;;;;;33.80;9.88;;;;;;;8.56;100.00;100394.19;5056712;28;20482;-76
2023/04/24 06:38:01;;;;;;;32.58;9.75;;;;;;;8.59;100.00;100402.00;5066520;28;20104;-76
2023/04/24 06:40:26;;;;;;;35.38;8.48;;;;;;;8.56;100.00;100416.03;5070915;28;20036;-76
2023/04/24 06:42:52;;;;;;;35.95;7.95;;;;;;;8.54;100.00;100424.41;5063278;28;20060;-76
2023/04/24 06:45:18;;;;;;;24.98;7.35;;;;;;;8.53;100.00;100430.03;5065259;28;20035;-76
2023/04/24 06:47:43;;;;;;;25.55;6.65;;;;;;;8.52;100.00;100440.13;5076823;28;20039;-76
2023/04/24 06:50:09;;;;;;;29.92;7.65;;;;;;;8.56;100.00;100441.44;5068915;28;20085;-76
2023/04/24 06:52:35;;;;;;;29.43;7.00;;;;;;;8.54;100.00;100439.94;5076506;28;20056;-76
2023/04/24 06:55:02;;;;;;;29.98;6.93;;;;;;;8.58;100.00;100452.16;5072045;28;20020;-76
2023/04/24 06:57:27;;;;;;;27.85;6.57;;;;;;;8.57;100.00;100462.25;5077483;28;20028;-76
2023/04/24 06:59:53;;;;;;;20.45;6.63;;;;;;;8.57;100.00;100461.38;5068790;28;20035;-76
2023/04/24 07:02:18;;;;;;;37.47;8.47;;;;;;;8.60;100.00;100463.75;5069581;28;20506;-76
2023/04/24 07:04:43;;;;;;;30.83;6.60;;;;;;;8.53;100.00;100460.06;5073412;28;20620;-76
2023/04/24 07:07:14;;;;;;;22.90;6.68;;;;;;;8.54;100.00;100470.81;5076397;28;20498;-76
2023/04/24 07:09:42;;;;;;;28.10;7.88;;;;;;;8.60;100.00;100480.13;5067653;28;20026;-76
2023/04/24 07:12:07;;;;;;;26.85;7.50;;;;;;;8.56;100.00;100473.34;5072056;28;20097;-76
2023/04/24 07:14:32;;;;;;;32.50;7.40;;;;;;;8.65;100.00;100483.94;5070440;28;20028;-76
2023/04/24 07:16:58;;;;;;;29.77;6.80;;;;;;;8.66;100.00;100485.63;5069958;28;20028;-76
2023/04/24 07:19:23;;;;;;;44.00;8.15;;;;;;;8.72;100.00;100490.34;5072481;28;20528;-76
2023/04/24 07:21:49;;;;;;;37.10;5.70;;;;;;;8.68;100.00;100493.63;5074955;28;20028;-76
2023/04/24 07:24:14;;;;;;;32.25;7.75;;;;;;;8.76;100.00;100504.44;5074127;28;20111;-76
2023/04/24 07:26:40;;;;;;;23.67;6.07;;;;;;;8.76;100.00;100504.44;5070723;28;20476;-76
2023/04/24 07:29:06;;;;;;;43.87;5.57;;;;;;;8.77;100.00;100508.84;5067382;28;20122;-76
2023/04/24 07:31:32;;;;;;;35.60;6.90;;;;;;;8.79;100.00;100517.69;5077533;28;20022;-77
2023/04/24 07:33:58;;;;;;;27.33;6.13;;;;;;;8.84;100.00;100515.22;5063078;28;20025;-76
2023/04/24 07:36:25;;;;;;;37.83;5.63;;;;;;;8.78;100.00;100530.53;5066710;28;20025;-77
2023/04/24 07:38:51;;;;;;;31.52;6.35;;;;;;;8.78;100.00;100538.72;5072958;28;20023;-76
2023/04/24 07:41:16;;;;;;;25.42;5.18;;;;;;;8.74;100.00;100542.00;5077143;28;20036;-76
2023/04/24 07:43:42;;;;;;;26.30;4.93;;;;;;;8.71;100.00;100556.06;5064707;28;20056;-76
2023/04/24 07:46:08;;;;;;;30.30;4.88;;;;;;;8.75;100.00;100554.63;5064322;28;20058;-77
2023/04/24 07:48:34;;;;;;;31.55;4.90;;;;;;;8.73;100.00;100548.50;5065324;28;20020;-77
2023/04/24 07:50:59;;;;;;;27.80;4.60;;;;;;;8.79;100.00;100551.31;5062271;28;20028;-77
2023/04/24 07:53:24;;;;;;;41.60;6.03;;;;;;;8.94;100.00;100564.91;5067903;28;20493;-76
2023/04/24 07:55:50;;;;;;;18.43;3.80;;;;;;;9.02;100.00;100567.53;5065579;28;20502;-76
2023/04/24 07:58:15;;;;;;;31.35;4.22;;;;;;;8.91;100.00;100568.88;5055411;28;20549;-76
2023/04/24 08:00:41;;;;;;;17.85;4.65;;;;;;;8.85;100.00;100574.25;5073613;28;20020;-74
2023/04/24 08:03:06;;;;;;;27.80;4.60;;;;;;;8.86;100.00;100586.91;5059693;28;20060;-77
2023/04/24 08:05:32;;;;;;;11.20;3.45;;;;;;;8.83;100.00;100582.69;5074477;28;20038;-77
2023/04/24 08:07:58;;;;;;;24.23;4.45;;;;;;;8.77;100.00;100602.56;5068618;28;20041;-77
2023/04/24 08:10:24;;;;;;;22.25;5.22;;;;;;;8.64;100.00;100604.28;5072386;28;20024;-77
2023/04/24 08:12:49;;;;;;;19.38;3.90;;;;;;;8.57;100.00;100616.97;5077836;28;20038;-78
2023/04/24 08:15:15;;;;;;;19.90;4.17;;;;;;;8.61;100.00;100616.44;5080949;28;20033;-77
2023/04/24 08:17:40;;;;;;;15.70;4.10;;;;;;;8.60;100.00;100630.25;5080678;28;20036;-77
2023/04/24 08:20:10;;;;;;;16.17;3.88;;;;;;;8.64;100.00;100623.41;5074835;28;20486;-77
2023/04/24 08:22:35;;;;;;;22.30;4.35;;;;;;;8.63;100.00;100632.59;5070299;28;20033;-78
2023/04/24 08:25:01;;;;;;;24.10;3.97;;;;;;;8.72;100.00;100631.47;5083796;28;20107;-77
2023/04/24 08:27:27;;;;;;;17.55;3.17;;;;;;;8.80;100.00;100640.41;5079093;28;20050;-77
2023/04/24 08:29:57;;;;;;;30.50;4.10;;;;;;;8.77;100.00;100648.97;5067151;28;20047;-78
2023/04/24 08:32:22;;;;;;;23.50;5.50;;;;;;;8.84;100.00;100649.03;5076227;28;20032;-77
2023/04/24 08:34:47;;;;;;;22.17;3.90;;;;;;;8.89;100.00;100650.19;5077734;28;20036;-76
2023/04/24 08:37:13;;;;;;;21.77;3.58;;;;;;;8.93;100.00;100665.16;5082610;28;20033;-78
2023/04/24 08:39:38;;;;;;;23.92;4.95;;;;;;;9.01;100.00;100659.56;5078699;28;20040;-78
2023/04/24 08:42:07;;;;;;;18.10;4.38;;;;;;;9.12;100.00;100672.72;5071751;28;20405;-77
2023/04/24 08:44:34;;;;;;;20.95;3.40;;;;;;;9.05;100.00;100676.41;5069199;28;20500;-77
2023/04/24 08:47:01;;;;;;;18.83;3.38;;;;;;;8.88;100.00;100672.22;5078158;28;20028;-78
2023/04/24 08:49:28;;;;;;;18.00;4.03;;;;;;;8.86;100.00;100672.41;5082366;28;20035;-78
2023/04/24 08:51:54;;;;;;;;;;;;;;;8.78;100.00;100677.13;5083187;28;20056;-78
2023/04/24 08:54:20;;;;;;;14.40;3.13;;;;;;;8.75;100.00;100681.06;5071009;28;19935;-78
2023/04/24 08:56:48;;;;;;;13.75;3.38;;;;;;;8.71;100.00;100690.69;5081281;28;20032;-76
2023/04/24 08:59:14;;;;;;;19.00;3.42;;;;;;;8.77;100.00;100694.56;5073766;28;20116;-77
2023/04/24 09:01:40;;;;;;;23.48;3.90;;;;;;;8.80;100.00;100689.56;5072449;28;20516;-78
2023/04/24 09:04:08;;;;;;;12.30;2.80;;;;;;;8.84;100.00;100695.47;5072120;28;20036;-75
2023/04/24 09:06:34;;;;;;;17.65;4.30;;;;;;;8.87;100.00;100695.94;5069723;28;20047;-76
2023/04/24 09:09:01;;;;;;;13.37;2.77;;;;;;;8.84;96.30;100699.06;5069557;28;20028;-75
2023/04/24 09:11:27;;;;;;;16.55;3.22;;;;;;;8.80;95.83;100699.66;5070815;28;20355;-77
2023/04/24 09:13:54;;;;;;;10.20;2.40;;;;;;;8.84;98.64;100703.66;5069864;28;20024;-78
2023/04/24 09:16:20;;;;;;;8.30;3.17;;;;;;;8.80;99.34;100710.56;5076080;28;20051;-77
2023/04/24 09:18:46;;;;;;;10.67;2.90;;;;;;;8.96;99.75;100705.72;5078209;28;20039;-78
2023/04/24 09:21:11;;;;;;;13.25;3.63;;;;;;;9.04;99.62;100718.44;5079157;28;20028;-78
2023/04/24 09:23:38;;;;;;;18.13;2.30;;;;;;;9.08;100.00;100711.56;5064387;28;20020;-78
2023/04/24 09:26:07;;;;;;;11.70;2.45;;;;;;;9.00;100.00;100717.13;5077826;28;20035;-78
2023/04/24 09:28:39;;;;;;;10.68;2.30;;;;;;;8.92;98.67;100725.44;5068634;28;20492;-77
2023/04/24 09:31:17;;;;;;;11.73;2.47;;;;;;;8.85;99.32;100735.41;5071552;28;20496;-77
2023/04/24 09:33:58;;;;;;;8.95;1.88;;;;;;;8.74;99.87;100754.97;5077173;28;20366;-77
2023/04/24 09:36:29;;;;;;;6.82;1.60;;;;;;;8.62;100.00;100753.75;5067839;28;20042;-78
2023/04/24 09:38:58;;;;;;;5.38;1.38;;;;;;;8.67;100.00;100751.31;5068760;28;20358;-77
2023/04/24 09:41:23;;;;;;;2.97;1.30;;;;;;;8.76;100.00;100758.41;5072382;28;20100;-78
2023/04/24 09:43:49;;;;;;;4.90;1.27;;;;;;;8.96;99.30;100754.06;5069813;28;20241;-77
2023/04/24 09:46:18;;;;;;;3.53;1.08;;;;;;;8.98;97.63;100754.72;5082386;28;20020;-77
2023/04/24 09:48:43;;;;;;;5.40;1.88;;;;;;;9.10;95.64;100766.84;5070133;28;20028;-77
2023/04/24 09:51:11;;;;;;;5.63;1.10;;;;;;;9.33;94.35;100767.56;5071593;28;20020;-77
2023/04/24 09:53:37;;;;;;;4.85;1.30;;;;;;;9.36;95.42;100772.66;5063380;28;20044;-77
2023/04/24 09:56:08;;;;;;;6.03;1.40;;;;;;;9.30;95.34;100785.19;5066921;28;20024;-77
2023/04/24 09:58:35;;;;;;;7.60;1.42;;;;;;;9.24;96.41;100779.66;5067875;28;20025;-78
2023/04/24 10:01:01;;;;;;;5.28;1.77;;;;;;;9.14;94.62;100776.38;5070250;28;20134;-77
2023/04/24 10:03:30;;;;;;;5.30;1.30;;;;;;;9.13;94.68;100778.25;5075103;28;20036;-77
2023/04/24 10:05:59;;;;;;;3.75;1.75;;;;;;;9.09;94.09;100781.56;5079630;28;20166;-76
2023/04/24 10:08:25;;;;;;;5.50;1.63;;;;;;;9.15;95.77;100784.38;5069870;28;20040;-77
2023/04/24 10:10:50;;;;;;;6.40;1.40;;;;;;;9.26;95.17;100791.25;5077651;28;20028;-78
2023/04/24 10:13:15;;;;;;;7.63;1.85;;;;;;;9.45;94.95;100779.72;5074938;28;20591;-78
2023/04/24 10:15:41;;;;;;;6.50;1.13;;;;;;;9.68;94.06;100785.88;5073175;28;20028;-78
2023/04/24 10:18:08;;;;;;;6.40;2.00;;;;;;;9.92;93.21;100793.75;5075154;28;20051;-78
2023/04/24 10:20:35;;;;;;;6.00;1.40;;;;;;;10.08;91.94;100790.78;5078616;28;20035;-78
2023/04/24 10:23:01;;;;;;;1.77;1.15;;;;;;;10.30;91.93;100792.47;5075077;28;20477;-78
2023/04/24 10:25:31;;;;;;;3.42;1.20;;;;;;;10.71;91.81;100793.41;5075476;28;20043;-78
2023/04/24 10:28:01;;;;;;;8.77;1.98;;;;;;;10.74;90.04;100793.03;5075568;28;20123;-78
2023/04/24 10:30:29;;;;;;;5.50;1.30;;;;;;;10.51;89.49;100797.91;5066902;28;20032;-77
2023/04/24 10:32:55;;;;;;;6.78;1.75;;;;;;;10.33;89.09;100798.41;5075620;28;20020;-77
2023/04/24 10:35:26;;;;;;;8.63;1.70;;;;;;;10.04;88.60;100800.41;5075161;28;20028;-76
2023/04/24 10:37:59;;;;;;;6.70;1.83;;;;;;;9.87;90.66;100812.63;5072982;28;20025;-77
2023/04/24 10:40:33;;;;;;;6.03;1.85;;;;;;;9.46;91.70;100811.50;5074575;28;20032;-77
2023/04/24 10:43:02;;;;;;;13.23;2.50;;;;;;;9.36;93.67;100820.00;5070941;28;20385;-77
2023/04/24 10:45:28;;;;;;;4.75;1.50;;;;;;;9.37;95.58;100829.88;5076484;28;20217;-77
2023/04/24 10:48:02;;;;;;;9.25;2.25;;;;;;;9.29;97.72;100831.88;5075890;28;20466;-78
2023/04/24 10:50:43;;;;;;;10.40;1.85;;;;;;;9.26;96.10;100826.78;5078091;28;20063;-78
2023/04/24 10:53:14;;;;;;;10.18;2.20;;;;;;;9.18;97.50;100833.19;5055817;28;20392;-77
2023/04/24 10:55:43;;;;;;;6.85;1.63;;;;;;;9.20;95.38;100838.47;5079019;28;20035;-77
2023/04/24 10:58:09;;;;;;;9.30;2.15;;;;;;;9.40;96.47;100834.97;5074941;28;20101;-77
2023/04/24 11:00:37;;;;;;;11.32;2.10;;;;;;;9.76;95.44;100833.13;5067571;28;20024;-77
2023/04/24 11:03:04;;;;;;;14.38;2.13;;;;;;;10.13;95.35;100838.41;5073046;28;20016;-77
2023/04/24 11:05:53;;;;;;;11.10;2.22;;;;;;;10.23;93.84;100835.34;5074341;28;20040;-77
2023/04/24 11:08:27;;;;;;;8.68;1.90;;;;;;;10.30;93.54;100833.53;5057509;28;20047;-77
2023/04/24 11:10:55;;;;;;;8.38;2.10;;;;;;;10.38;92.54;100841.59;5076794;28;20138;-77
2023/04/24 11:13:23;;;;;;;10.75;2.13;;;;;;;10.27;90.99;100839.38;5077638;28;20426;-77
2023/04/24 11:16:28;;;;;;;8.75;2.17;;;;;;;10.17;90.84;100853.41;5069439;28;20027;-77
2023/04/24 11:19:04;;;;;;;6.70;2.00;;;;;;;10.04;88.89;100845.03;5072835;28;20096;-77